Time;durP1;ratioP1;P1;durP2;ratioP2;P2;SDS_P1;SDS_P2;PMS_P1;PMS_P2;Temp;Humidity;BMP_temperature;BMP_pressure;BME280_temperature;BME280_humidity;BME280_pressure;Samples;Min_cycle;Max_cycle;Signal;HPM_P1;HPM_P2
2022/06/06 00:00:49;;;;;;;6.70;6.10;;;15.60;25.40;;;;;;8402751;28;20298;-66
2022/06/06 00:04:50;;;;;;;6.60;6.00;;;15.70;1.00;;;;;;8399686;28;20207;-67
2022/06/06 00:08:50;;;;;;;6.80;6.13;;;15.80;1.00;;;;;;8403357;28;20197;-64
2022/06/06 00:12:51;;;;;;;7.53;6.23;;;15.80;1.00;;;;;;8398995;28;20253;-64
2022/06/06 00:16:53;;;;;;;6.87;6.23;;;15.80;1.00;;;;;;8400743;28;20589;-66
2022/06/06 00:20:53;;;;;;;7.80;6.50;;;15.90;1.00;;;;;;8405135;28;20185;-65
2022/06/06 00:24:54;;;;;;;6.93;5.83;;;15.90;1.00;;;;;;8396407;28;20307;-67
2022/06/06 00:28:56;;;;;;;7.50;6.67;;;15.90;1.00;;;;;;8397366;28;20243;-64
2022/06/06 00:37:24;;;;;;;6.60;6.00;;;15.90;1.00;;;;;;8402744;28;20188;-66
2022/06/06 00:41:25;;;;;;;5.90;5.40;;;15.90;1.00;;;;;;8408333;28;20185;-68
2022/06/06 00:45:34;;;;;;;6.97;6.27;;;15.90;1.00;;;;;;8398328;28;20181;-64
2022/06/06 00:49:46;;;;;;;8.87;6.60;;;15.90;1.00;;;;;;8395223;28;20189;-68
2022/06/06 00:53:55;;;;;;;7.10;6.33;;;15.90;1.00;;;;;;8404344;28;20187;-65
2022/06/06 00:58:05;;;;;;;7.03;6.43;;;15.90;1.00;;;;;;8400123;28;20237;-66
2022/06/06 01:02:08;;;;;;;7.50;6.73;;;15.80;1.00;;;;;;8396476;28;20207;-64
2022/06/06 01:06:13;;;;;;;6.37;5.77;;;15.70;1.00;;;;;;8399018;28;20185;-65
2022/06/06 01:10:15;;;;;;;6.33;5.73;;;15.70;25.90;;;;;;8409173;28;20195;-69
2022/06/06 01:14:19;;;;;;;6.87;6.20;;;15.60;46.00;;;;;;8393248;28;20189;-65
2022/06/06 01:18:34;;;;;;;6.13;5.63;;;15.60;99.90;;;;;;8399134;28;20599;-66
2022/06/06 01:23:04;;;;;;;7.67;6.77;;;15.50;99.90;;;;;;8396596;28;20237;-67
2022/06/06 01:27:26;;;;;;;8.43;6.97;;;15.50;99.90;;;;;;8402084;28;20303;-66
2022/06/06 01:31:36;;;;;;;7.83;7.13;;;15.60;99.90;;;;;;8411369;28;20184;-66
2022/06/06 01:35:40;;;;;;;8.33;6.70;;;15.60;99.90;;;;;;8396556;28;20177;-66
2022/06/06 01:39:41;;;;;;;7.50;6.80;;;15.70;99.20;;;;;;8394551;28;20191;-65
2022/06/06 01:43:51;;;;;;;7.60;6.80;;;15.80;99.90;;;;;;8399091;28;20212;-65
2022/06/06 01:47:57;;;;;;;7.00;6.30;;;15.80;50.90;;;;;;8402995;28;20201;-65
2022/06/06 01:52:07;;;;;;;7.57;6.87;;;15.80;52.80;;;;;;8394276;28;20200;-67
2022/06/06 01:56:10;;;;;;;7.17;6.47;;;15.80;76.60;;;;;;8402198;28;20213;-65
2022/06/06 02:00:12;;;;;;;7.03;6.33;;;15.70;99.90;;;;;;8398788;28;20189;-65
2022/06/06 02:04:13;;;;;;;6.93;6.23;;;15.60;99.90;;;;;;8403156;28;20306;-64
2022/06/06 02:08:15;;;;;;;8.00;7.10;;;15.50;99.90;;;;;;8404111;28;20191;-64
2022/06/06 02:12:19;;;;;;;8.07;7.13;;;15.40;99.90;;;;;;8405827;28;20230;-65
2022/06/06 02:16:20;;;;;;;7.73;6.93;;;15.30;99.90;;;;;;8402405;28;20184;-66
2022/06/06 02:20:24;;;;;;;7.43;6.83;;;15.20;99.90;;;;;;8408330;28;20196;-65
2022/06/06 02:24:24;;;;;;;7.77;7.07;;;15.20;99.90;;;;;;8399292;28;20213;-66
2022/06/06 02:28:25;;;;;;;8.00;6.97;;;15.20;1.00;;;;;;8398784;28;20311;-65
2022/06/06 02:32:26;;;;;;;8.10;7.30;;;15.10;1.00;;;;;;8408854;28;20193;-65
2022/06/06 02:36:27;;;;;;;7.53;6.83;;;15.10;1.00;;;;;;8408217;28;20199;-70
2022/06/06 02:40:30;;;;;;;7.10;6.40;;;15.10;1.00;;;;;;8407925;28;20197;-67
2022/06/06 02:44:31;;;;;;;7.77;6.77;;;15.20;1.00;;;;;;8405393;28;20240;-69
2022/06/06 02:48:32;;;;;;;7.23;6.57;;;15.30;99.90;;;;;;8402575;28;20181;-66
2022/06/06 02:52:33;;;;;;;7.93;7.23;;;15.40;99.90;;;;;;8407307;28;20209;-69
2022/06/06 02:56:34;;;;;;;8.23;7.43;;;15.50;99.90;;;;;;8404752;28;20191;-70
2022/06/06 03:00:41;;;;;;;7.37;6.77;;;15.60;99.90;;;;;;8409795;28;20219;-67
2022/06/06 03:04:42;;;;;;;7.80;7.00;;;15.70;99.90;;;;;;8404364;28;20216;-68
2022/06/06 03:08:58;;;;;;;7.63;6.70;;;15.80;99.90;;;;;;8405163;28;20185;-68
2022/06/06 03:13:16;;;;;;;8.80;6.20;;;15.90;63.30;;;;;;8400436;28;20188;-67
2022/06/06 03:22:20;;;;;;;8.17;7.37;;;16.00;6.00;;;;;;8406329;28;20741;-67
2022/06/06 03:26:48;;;;;;;10.07;8.90;;;16.10;99.90;;;;;;8408371;28;20336;-67
2022/06/06 03:31:15;;;;;;;8.77;7.87;;;16.00;99.90;;;;;;8404914;28;20288;-69
2022/06/06 03:36:03;;;;;;;7.43;6.77;;;16.00;99.90;;;;;;8412533;28;20214;-68
2022/06/06 03:40:27;;;;;;;6.80;6.17;;;16.00;99.90;;;;;;8393902;28;20198;-68
2022/06/06 03:44:43;;;;;;;7.43;6.73;;;16.10;99.90;;;;;;8405965;28;20254;-68
2022/06/06 03:49:02;;;;;;;8.17;7.37;;;16.10;99.90;;;;;;8401666;28;20338;-72
2022/06/06 03:53:09;;;;;;;7.27;6.57;;;16.20;99.90;;;;;;8409974;28;20190;-68
2022/06/06 03:57:18;;;;;;;7.23;6.50;;;16.20;99.90;;;;;;8416464;28;20189;-68
2022/06/06 04:01:22;;;;;;;5.97;5.37;;;16.30;99.90;;;;;;8402308;28;20192;-68
2022/06/06 04:05:22;;;;;;;9.47;6.90;;;16.40;99.90;;;;;;8411817;28;20219;-71
2022/06/06 04:09:25;;;;;;;7.23;6.53;;;16.60;99.90;;;;;;8405430;28;20207;-67
2022/06/06 04:13:53;;;;;;;8.13;7.33;;;16.80;99.90;;;;;;8406620;28;20186;-67
2022/06/06 04:18:18;;;;;;;8.80;6.93;;;17.10;99.90;;;;;;8401233;28;20190;-67
2022/06/06 04:22:37;;;;;;;7.27;6.67;;;17.50;99.90;;;;;;8401872;28;20201;-68
2022/06/06 04:27:21;;;;;;;8.20;7.20;;;18.10;1.00;;;;;;8407679;28;20212;-68
2022/06/06 04:31:50;;;;;;;7.50;6.67;;;18.90;99.90;;;;;;8402869;28;20181;-69
2022/06/06 04:35:57;;;;;;;6.50;5.90;;;19.80;99.90;;;;;;8410952;28;20196;-69
2022/06/06 04:40:17;;;;;;;6.23;5.70;;;20.60;14.30;;;;;;8400213;28;20185;-68
2022/06/06 04:44:43;;;;;;;6.23;5.73;;;20.60;1.00;;;;;;8401750;28;20213;-69
2022/06/06 04:48:46;;;;;;;6.90;6.30;;;20.20;99.90;;;;;;8395672;28;20284;-69
2022/06/06 04:52:52;;;;;;;7.57;6.87;;;19.90;99.90;;;;;;8402659;28;20185;-66
2022/06/06 04:56:54;;;;;;;7.63;6.87;;;19.60;1.00;;;;;;8406470;28;20172;-67
2022/06/06 05:00:56;;;;;;;7.57;6.87;;;19.30;1.00;;;;;;8405255;28;20176;-68
2022/06/06 05:04:57;;;;;;;7.73;7.13;;;19.30;53.00;;;;;;8407149;28;20246;-66
2022/06/06 05:09:13;;;;;;;7.67;6.97;;;19.30;99.90;;;;;;8405665;28;20181;-69
2022/06/06 05:13:20;;;;;;;8.10;7.20;;;19.40;99.90;;;;;;8410896;28;20263;-67
2022/06/06 05:17:26;;;;;;;7.10;6.40;;;19.40;43.10;;;;;;8412002;28;20180;-68
2022/06/06 05:21:58;;;;;;;7.93;7.20;;;19.40;91.00;;;;;;8400211;28;20188;-67
2022/06/06 05:26:20;;;;;;;8.10;7.40;;;19.10;99.90;;;;;;8412854;28;20179;-66
2022/06/06 05:30:49;;;;;;;8.40;7.50;;;18.80;1.00;;;;;;8403075;28;20555;-68
2022/06/06 05:35:08;;;;;;;9.10;7.57;;;18.50;1.00;;;;;;8395681;28;20219;-68
2022/06/06 05:39:36;;;;;;;9.30;8.50;;;18.20;1.00;;;;;;8405498;28;20219;-67
2022/06/06 05:43:49;;;;;;;9.03;8.17;;;17.70;99.90;;;;;;8404530;28;20204;-66
2022/06/06 05:47:56;;;;;;;9.10;8.20;;;17.50;99.90;;;;;;8410132;28;20207;-67
2022/06/06 05:52:09;;;;;;;7.77;7.07;;;17.50;99.90;;;;;;8415859;28;20188;-66
2022/06/06 05:56:38;;;;;;;8.57;7.87;;;17.60;99.90;;;;;;8404718;28;20190;-66
2022/06/06 06:00:53;;;;;;;9.00;8.20;;;17.70;99.90;;;;;;8411668;28;20226;-66
2022/06/06 06:05:03;;;;;;;11.33;8.30;;;17.80;99.90;;;;;;8411387;28;20218;-67
2022/06/06 06:09:21;;;;;;;9.53;8.73;;;17.80;99.90;;;;;;8404818;28;20200;-66
2022/06/06 06:13:37;;;;;;;9.30;8.50;;;17.80;99.90;;;;;;8406527;28;20268;-66
2022/06/06 06:17:40;;;;;;;9.63;8.70;;;17.80;99.90;;;;;;8408394;28;20188;-65
2022/06/06 06:21:46;;;;;;;9.50;8.63;;;17.80;99.90;;;;;;8401704;28;20181;-67
2022/06/06 06:25:49;;;;;;;10.87;9.90;;;17.90;99.90;;;;;;8407703;28;20215;-69
2022/06/06 06:29:50;;;;;;;10.03;9.13;;;17.90;99.90;;;;;;8410840;28;20201;-68
2022/06/06 06:34:07;;;;;;;10.80;9.77;;;17.90;99.90;;;;;;8410881;28;20283;-67
2022/06/06 06:38:28;;;;;;;9.93;8.93;;;17.80;99.90;;;;;;8404046;28;20244;-66
2022/06/06 06:42:44;;;;;;;10.17;8.83;;;17.70;99.90;;;;;;8404841;28;20212;-66
2022/06/06 06:46:55;;;;;;;10.80;9.80;;;17.70;99.90;;;;;;8410321;28;20252;-68
2022/06/06 06:51:15;;;;;;;10.67;9.60;;;17.80;99.90;;;;;;8402297;28;20175;-66
2022/06/06 06:55:22;;;;;;;10.47;9.50;;;17.80;99.90;;;;;;8412066;28;20185;-68
2022/06/06 06:59:34;;;;;;;10.37;9.47;;;17.80;99.90;;;;;;8415376;28;20212;-68
2022/06/06 07:08:38;;;;;;;10.50;9.40;;;17.70;99.90;;;;;;8405393;28;20200;-70
2022/06/06 07:13:06;;;;;;;9.07;8.27;;;17.80;99.90;;;;;;8404362;28;20189;-69
2022/06/06 07:17:09;;;;;;;9.47;8.50;;;18.00;99.90;;;;;;8406945;28;20477;-66
2022/06/06 07:21:12;;;;;;;9.63;8.47;;;18.00;99.90;;;;;;8404407;28;20191;-66
2022/06/06 07:25:13;;;;;;;9.03;8.20;;;18.10;99.90;;;;;;8404575;28;20239;-66
2022/06/06 07:29:18;;;;;;;8.33;7.63;;;18.20;99.90;;;;;;8404011;28;20244;-69
2022/06/06 07:33:48;;;;;;;8.10;7.30;;;18.50;99.90;;;;;;8403296;28;20195;-69
2022/06/06 07:38:07;;;;;;;7.57;6.93;;;18.70;99.90;;;;;;8394445;28;20197;-68
2022/06/06 07:42:40;;;;;;;8.10;7.40;;;18.70;99.90;;;;;;8403343;28;20200;-66
2022/06/06 07:47:05;;;;;;;7.90;7.20;;;18.80;99.90;;;;;;8401193;28;20264;-68
2022/06/06 07:51:12;;;;;;;7.37;6.67;;;18.80;99.90;;;;;;8392481;28;20216;-69
2022/06/06 07:55:16;;;;;;;7.57;6.87;;;18.80;99.90;;;;;;8406418;28;20189;-67
2022/06/06 07:59:17;;;;;;;7.80;7.10;;;18.60;99.90;;;;;;8405229;28;20336;-67
2022/06/06 08:03:32;;;;;;;7.10;6.50;;;18.50;99.90;;;;;;8404835;28;20197;-67
2022/06/06 08:07:44;;;;;;;7.50;6.70;;;18.40;99.90;;;;;;8402902;28;20170;-65
2022/06/06 08:11:50;;;;;;;7.07;6.43;;;18.40;99.90;;;;;;8409826;28;20173;-69
2022/06/06 08:16:06;;;;;;;8.07;7.37;;;18.40;99.90;;;;;;8399460;28;20260;-68
2022/06/06 08:20:17;;;;;;;7.77;7.07;;;18.30;99.90;;;;;;8408804;28;20185;-69
2022/06/06 08:24:33;;;;;;;6.97;6.37;;;18.30;99.90;;;;;;8404597;28;20232;-67
2022/06/06 08:28:40;;;;;;;6.73;6.13;;;18.40;99.90;;;;;;8404163;28;20212;-67
2022/06/06 08:32:42;;;;;;;9.00;6.53;;;18.40;99.90;;;;;;8406099;28;20189;-69
2022/06/06 08:36:57;;;;;;;6.70;6.10;;;18.40;99.90;;;;;;8398256;28;20182;-66
2022/06/06 08:41:04;;;;;;;7.30;6.20;;;18.40;99.90;;;;;;8410277;28;20188;-69
2022/06/06 08:45:15;;;;;;;6.77;6.17;;;18.40;99.90;;;;;;8401108;28;20209;-68
2022/06/06 08:54:19;;;;;;;6.77;6.17;;;18.50;99.90;;;;;;8405222;28;20195;-67
2022/06/06 08:58:38;;;;;;;6.50;6.00;;;18.70;99.90;;;;;;8401687;28;20192;-69
2022/06/06 09:02:57;;;;;;;6.87;6.20;;;18.70;99.90;;;;;;8400217;28;20201;-67
2022/06/06 20:04:15;;;;;;;2.83;2.10;;;20.30;99.90;;;;;;8416005;27;20308;-64
2022/06/06 20:08:36;;;;;;;2.87;2.40;;;20.00;99.90;;;;;;8427212;27;20185;-71
2022/06/06 20:12:47;;;;;;;2.17;1.97;;;19.90;1.00;;;;;;8416128;28;20184;-65
2022/06/06 20:16:53;;;;;;;2.13;1.93;;;19.70;81.20;;;;;;8405021;28;20184;-65
2022/06/06 20:20:54;;;;;;;2.60;2.30;;;19.60;99.90;;;;;;8404129;28;21099;-66
2022/06/06 20:25:04;;;;;;;3.43;2.40;;;19.50;99.90;;;;;;8416702;28;20189;-66
2022/06/06 20:29:30;;;;;;;2.67;2.20;;;19.30;99.90;;;;;;8396572;28;20201;-66
2022/06/06 20:33:38;;;;;;;2.83;2.27;;;19.20;1.00;;;;;;8402515;28;20181;-64
2022/06/06 20:38:04;;;;;;;2.97;2.43;;;19.00;99.90;;;;;;8398715;28;20181;-66
2022/06/06 20:42:20;;;;;;;2.30;2.10;;;18.90;99.90;;;;;;8393343;28;20215;-65
2022/06/06 20:46:31;;;;;;;2.67;2.23;;;18.80;1.00;;;;;;8397771;28;20192;-65
2022/06/06 20:50:39;;;;;;;5.10;2.20;;;18.80;1.00;;;;;;8401977;28;20185;-66
2022/06/06 20:54:48;;;;;;;2.93;2.40;;;18.70;1.00;;;;;;8395777;28;20247;-65
2022/06/06 20:58:49;;;;;;;3.43;2.17;;;18.60;1.00;;;;;;8402390;28;20185;-65
2022/06/06 21:02:52;;;;;;;2.43;2.23;;;18.50;1.00;;;;;;8395374;28;20370;-65
2022/06/06 21:06:53;;;;;;;3.13;1.87;;;18.50;99.90;;;;;;8397704;28;20263;-66
2022/06/06 21:10:54;;;;;;;7.57;2.13;;;18.50;99.90;;;;;;8393108;28;20185;-66
2022/06/06 21:14:54;;;;;;;1.73;1.57;;;18.40;99.90;;;;;;8381059;28;20185;-66
2022/06/06 21:18:56;;;;;;;1.73;1.63;;;18.40;99.90;;;;;;8371620;28;20207;-66
2022/06/06 21:22:57;;;;;;;2.40;2.20;;;18.30;99.90;;;;;;8379066;28;20212;-67
2022/06/06 21:26:58;;;;;;;2.63;2.10;;;18.20;1.00;;;;;;8376393;28;20204;-66
2022/06/06 21:30:59;;;;;;;3.33;2.20;;;18.10;99.30;;;;;;8380343;28;20181;-66
2022/06/06 21:34:59;;;;;;;4.30;2.17;;;18.10;99.90;;;;;;8376639;28;20185;-66
2022/06/06 21:39:01;;;;;;;2.23;2.03;;;18.00;99.90;;;;;;8378985;28;20195;-66
2022/06/06 21:43:02;;;;;;;2.20;2.00;;;17.90;99.90;;;;;;8379208;28;20258;-67
2022/06/06 21:47:04;;;;;;;2.57;2.37;;;17.80;1.00;;;;;;8376012;28;20209;-67
2022/06/06 21:55:26;;;;;;;2.47;2.27;;;17.70;99.90;;;;;;8374904;28;20208;-67
2022/06/06 21:59:30;;;;;;;3.47;2.43;;;17.70;99.90;;;;;;8372667;28;20190;-65
2022/06/06 22:03:31;;;;;;;3.37;2.40;;;17.70;99.90;;;;;;8374750;28;20247;-64
2022/06/06 22:07:33;;;;;;;3.20;2.50;;;17.60;20.10;;;;;;8374821;28;20253;-66
2022/06/06 22:11:35;;;;;;;4.30;2.67;;;17.60;99.90;;;;;;8376574;28;20222;-67
2022/06/06 22:15:36;;;;;;;4.43;2.93;;;17.50;1.00;;;;;;8373749;28;20201;-66
2022/06/06 22:19:37;;;;;;;3.97;2.87;;;17.60;1.00;;;;;;8371341;28;20189;-65
2022/06/06 22:23:40;;;;;;;3.40;3.10;;;17.60;99.90;;;;;;8373483;28;20264;-65
2022/06/06 22:27:40;;;;;;;3.43;3.13;;;17.60;1.00;;;;;;8380894;28;20205;-66
2022/06/06 22:31:41;;;;;;;3.50;2.80;;;17.60;1.00;;;;;;8377650;28;20192;-67
2022/06/06 22:35:42;;;;;;;3.57;3.10;;;17.50;47.90;;;;;;8368660;28;20785;-66
2022/06/06 22:39:43;;;;;;;3.40;3.10;;;17.50;99.90;;;;;;8370379;28;20201;-66
2022/06/06 22:43:44;;;;;;;5.47;3.10;;;17.50;99.90;;;;;;8382415;28;20443;-67
2022/06/06 22:47:46;;;;;;;3.50;3.20;;;17.40;99.90;;;;;;8366468;28;20438;-67
2022/06/06 22:51:48;;;;;;;4.83;3.30;;;17.30;99.90;;;;;;8381875;28;20188;-66
2022/06/06 22:55:53;;;;;;;4.90;3.47;;;17.30;99.90;;;;;;8376152;28;21264;-66
2022/06/06 22:59:54;;;;;;;4.13;3.07;;;17.20;83.30;;;;;;8380235;28;20189;-66
2022/06/06 23:03:55;;;;;;;3.87;3.47;;;17.10;99.90;;;;;;8373004;28;20213;-67
2022/06/06 23:07:56;;;;;;;6.00;4.00;;;17.10;82.30;;;;;;8368134;28;20184;-65
2022/06/06 23:11:57;;;;;;;5.33;3.70;;;17.10;99.90;;;;;;8374081;28;20330;-67
2022/06/06 23:15:58;;;;;;;5.03;3.60;;;17.00;99.90;;;;;;8370682;28;20181;-67
2022/06/06 23:19:59;;;;;;;4.37;3.97;;;16.90;99.90;;;;;;8376172;28;20211;-67
2022/06/06 23:24:00;;;;;;;6.07;3.80;;;16.90;99.90;;;;;;8370777;28;20207;-68
2022/06/06 23:28:00;;;;;;;4.97;3.97;;;16.90;99.90;;;;;;8373974;28;20192;-68
2022/06/06 23:32:01;;;;;;;3.83;3.20;;;16.90;99.90;;;;;;8370756;28;20191;-68
2022/06/06 23:36:15;;;;;;;5.13;4.10;;;16.80;99.90;;;;;;8371068;28;20188;-67
2022/06/06 23:40:20;;;;;;;3.97;3.00;;;16.80;99.90;;;;;;8370851;28;20189;-66
2022/06/06 23:49:19;;;;;;;3.67;3.30;;;16.60;99.90;;;;;;8366891;28;20458;-68
2022/06/06 23:53:31;;;;;;;5.10;3.57;;;16.50;99.90;;;;;;8370818;28;20185;-67
2022/06/06 23:57:32;;;;;;;4.63;3.60;;;16.40;99.90;;;;;;8374764;28;20277;-67
